sensor_id;sensor_type;location;lat;lon;timestamp;P1;durP1;ratioP1;P2;durP2;ratioP2
31348;SDS011;17976;48.480;11.946;2023-02-10T09:04:07;61.20;;;25.55;;
31348;SDS011;17976;48.480;11.946;2023-02-10T09:06:35;51.83;;;23.58;;
31348;SDS011;17976;48.480;11.946;2023-02-10T09:11:34;47.05;;;21.17;;
31348;SDS011;17976;48.480;11.946;2023-02-10T09:14:00;50.85;;;23.45;;
31348;SDS011;17976;48.480;11.946;2023-02-10T09:16:26;51.33;;;23.15;;
31348;SDS011;17976;48.480;11.946;2023-02-10T09:18:52;45.38;;;22.27;;
31348;SDS011;17976;48.480;11.946;2023-02-10T09:21:18;48.78;;;22.80;;
31348;SDS011;17976;48.480;11.946;2023-02-10T09:23:44;47.80;;;22.70;;
31348;SDS011;17976;48.480;11.946;2023-02-10T09:26:10;49.90;;;22.83;;
31348;SDS011;17976;48.480;11.946;2023-02-10T09:28:36;50.50;;;23.13;;
31348;SDS011;17976;48.480;11.946;2023-02-10T09:31:05;55.45;;;23.33;;
31348;SDS011;17976;48.480;11.946;2023-02-10T09:33:32;49.97;;;24.13;;
31348;SDS011;17976;48.480;11.946;2023-02-10T09:35:58;44.88;;;21.90;;
31348;SDS011;17976;48.480;11.946;2023-02-10T09:38:24;43.53;;;21.85;;
31348;SDS011;17976;48.480;11.946;2023-02-10T09:41:04;42.88;;;22.08;;
31348;SDS011;17976;48.480;11.946;2023-02-10T09:46:05;42.13;;;21.42;;
31348;SDS011;17976;48.480;11.946;2023-02-10T09:48:54;41.22;;;21.77;;
31348;SDS011;17976;48.480;11.946;2023-02-10T09:53:52;40.75;;;21.75;;
31348;SDS011;17976;48.480;11.946;2023-02-10T09:56:19;46.85;;;22.92;;
31348;SDS011;17976;48.480;11.946;2023-02-10T09:58:48;41.45;;;21.80;;
31348;SDS011;17976;48.480;11.946;2023-02-10T10:01:18;42.60;;;21.90;;
31348;SDS011;17976;48.480;11.946;2023-02-10T10:08:53;42.20;;;23.23;;
31348;SDS011;17976;48.480;11.946;2023-02-10T10:13:58;40.45;;;22.48;;
31348;SDS011;17976;48.480;11.946;2023-02-10T10:16:42;69.13;;;24.05;;
31348;SDS011;17976;48.480;11.946;2023-02-10T10:19:13;106.68;;;27.02;;
31348;SDS011;17976;48.480;11.946;2023-02-10T10:27:20;38.92;;;21.73;;
31348;SDS011;17976;48.480;11.946;2023-02-10T10:29:55;38.17;;;21.87;;
31348;SDS011;17976;48.480;11.946;2023-02-10T10:32:32;38.50;;;22.08;;
31348;SDS011;17976;48.480;11.946;2023-02-10T10:34:59;39.05;;;22.05;;
31348;SDS011;17976;48.480;11.946;2023-02-10T10:37:26;40.67;;;23.00;;
31348;SDS011;17976;48.480;11.946;2023-02-10T10:39:53;37.25;;;21.98;;
31348;SDS011;17976;48.480;11.946;2023-02-10T10:45:21;42.20;;;23.35;;
31348;SDS011;17976;48.480;11.946;2023-02-10T10:50:33;40.05;;;22.88;;
31348;SDS011;17976;48.480;11.946;2023-02-10T10:52:59;39.63;;;23.30;;
31348;SDS011;17976;48.480;11.946;2023-02-10T10:55:37;48.10;;;23.05;;
31348;SDS011;17976;48.480;11.946;2023-02-10T10:58:09;47.03;;;24.42;;
31348;SDS011;17976;48.480;11.946;2023-02-10T11:00:36;41.97;;;23.52;;
31348;SDS011;17976;48.480;11.946;2023-02-10T11:03:03;38.90;;;22.45;;
31348;SDS011;17976;48.480;11.946;2023-02-10T11:05:31;41.80;;;24.00;;
31348;SDS011;17976;48.480;11.946;2023-02-10T11:07:57;39.35;;;22.85;;
31348;SDS011;17976;48.480;11.946;2023-02-10T11:12:52;38.80;;;22.42;;
31348;SDS011;17976;48.480;11.946;2023-02-10T11:17:51;40.10;;;23.85;;
31348;SDS011;17976;48.480;11.946;2023-02-10T11:20:25;35.55;;;21.35;;
31348;SDS011;17976;48.480;11.946;2023-02-10T11:25:34;46.22;;;23.65;;
31348;SDS011;17976;48.480;11.946;2023-02-10T11:28:00;39.47;;;22.63;;
31348;SDS011;17976;48.480;11.946;2023-02-10T11:30:28;41.97;;;22.67;;
31348;SDS011;17976;48.480;11.946;2023-02-10T11:32:54;41.97;;;22.92;;
31348;SDS011;17976;48.480;11.946;2023-02-10T11:35:20;39.15;;;22.48;;
31348;SDS011;17976;48.480;11.946;2023-02-10T11:37:51;41.33;;;23.20;;
31348;SDS011;17976;48.480;11.946;2023-02-10T11:40:19;50.55;;;22.35;;
31348;SDS011;17976;48.480;11.946;2023-02-10T11:42:49;38.97;;;22.25;;
31348;SDS011;17976;48.480;11.946;2023-02-10T11:45:20;37.70;;;22.00;;
31348;SDS011;17976;48.480;11.946;2023-02-10T11:47:47;38.13;;;21.42;;
31348;SDS011;17976;48.480;11.946;2023-02-10T11:50:31;37.35;;;21.80;;
31348;SDS011;17976;48.480;11.946;2023-02-10T11:52:58;36.60;;;22.27;;
31348;SDS011;17976;48.480;11.946;2023-02-10T11:55:25;38.03;;;21.50;;
31348;SDS011;17976;48.480;11.946;2023-02-10T12:00:42;35.85;;;21.38;;
31348;SDS011;17976;48.480;11.946;2023-02-10T12:15:46;32.22;;;20.67;;
31348;SDS011;17976;48.480;11.946;2023-02-10T12:21:05;37.33;;;22.85;;
31348;SDS011;17976;48.480;11.946;2023-02-10T12:33:48;32.00;;;20.75;;
31348;SDS011;17976;48.480;11.946;2023-02-10T12:49:29;31.48;;;19.55;;
31348;SDS011;17976;48.480;11.946;2023-02-10T12:54:26;33.55;;;20.73;;
31348;SDS011;17976;48.480;11.946;2023-02-10T12:56:57;30.23;;;19.45;;
31348;SDS011;17976;48.480;11.946;2023-02-10T12:59:29;34.72;;;19.35;;
31348;SDS011;17976;48.480;11.946;2023-02-10T13:01:59;35.65;;;20.77;;
31348;SDS011;17976;48.480;11.946;2023-02-10T13:04:26;35.38;;;20.20;;
31348;SDS011;17976;48.480;11.946;2023-02-10T13:06:57;37.53;;;21.48;;
31348;SDS011;17976;48.480;11.946;2023-02-10T13:09:46;32.60;;;20.95;;
31348;SDS011;17976;48.480;11.946;2023-02-10T13:12:29;31.58;;;20.40;;
31348;SDS011;17976;48.480;11.946;2023-02-10T13:15:06;34.35;;;21.40;;
31348;SDS011;17976;48.480;11.946;2023-02-10T13:17:56;29.25;;;19.73;;
31348;SDS011;17976;48.480;11.946;2023-02-10T13:20:25;33.25;;;19.98;;
31348;SDS011;17976;48.480;11.946;2023-02-10T13:28:27;34.65;;;20.05;;
31348;SDS011;17976;48.480;11.946;2023-02-10T13:36:15;34.90;;;19.88;;
31348;SDS011;17976;48.480;11.946;2023-02-10T13:38:45;32.38;;;20.00;;
31348;SDS011;17976;48.480;11.946;2023-02-10T13:41:22;31.52;;;19.35;;
31348;SDS011;17976;48.480;11.946;2023-02-10T13:46:42;31.00;;;19.25;;
31348;SDS011;17976;48.480;11.946;2023-02-10T13:49:11;31.58;;;18.95;;
31348;SDS011;17976;48.480;11.946;2023-02-10T13:51:40;34.55;;;20.27;;
31348;SDS011;17976;48.480;11.946;2023-02-10T13:54:06;37.50;;;20.55;;
31348;SDS011;17976;48.480;11.946;2023-02-10T13:56:32;37.67;;;20.77;;
31348;SDS011;17976;48.480;11.946;2023-02-10T13:59:03;35.10;;;20.65;;
31348;SDS011;17976;48.480;11.946;2023-02-10T14:01:37;37.47;;;22.88;;
31348;SDS011;17976;48.480;11.946;2023-02-10T14:06:33;37.83;;;21.80;;
31348;SDS011;17976;48.480;11.946;2023-02-10T14:09:03;36.72;;;20.98;;
31348;SDS011;17976;48.480;11.946;2023-02-10T14:11:35;37.75;;;21.58;;
31348;SDS011;17976;48.480;11.946;2023-02-10T14:14:16;33.25;;;20.60;;
31348;SDS011;17976;48.480;11.946;2023-02-10T14:16:42;35.83;;;20.92;;
31348;SDS011;17976;48.480;11.946;2023-02-10T14:19:22;34.80;;;20.20;;
31348;SDS011;17976;48.480;11.946;2023-02-10T14:21:49;36.80;;;20.95;;
31348;SDS011;17976;48.480;11.946;2023-02-10T14:24:20;37.67;;;21.48;;
31348;SDS011;17976;48.480;11.946;2023-02-10T14:26:47;36.25;;;21.45;;
31348;SDS011;17976;48.480;11.946;2023-02-10T14:29:15;39.30;;;21.80;;
31348;SDS011;17976;48.480;11.946;2023-02-10T14:31:42;43.70;;;22.05;;
31348;SDS011;17976;48.480;11.946;2023-02-10T14:34:17;39.10;;;21.70;;
31348;SDS011;17976;48.480;11.946;2023-02-10T14:36:50;40.60;;;21.92;;
31348;SDS011;17976;48.480;11.946;2023-02-10T14:39:19;38.13;;;21.30;;
31348;SDS011;17976;48.480;11.946;2023-02-10T14:41:46;39.75;;;22.08;;
31348;SDS011;17976;48.480;11.946;2023-02-10T14:44:18;38.45;;;22.20;;
31348;SDS011;17976;48.480;11.946;2023-02-10T14:46:49;38.80;;;20.80;;
31348;SDS011;17976;48.480;11.946;2023-02-10T14:49:15;41.58;;;23.08;;
31348;SDS011;17976;48.480;11.946;2023-02-10T14:51:44;46.20;;;22.50;;
31348;SDS011;17976;48.480;11.946;2023-02-10T14:54:14;46.97;;;23.52;;
31348;SDS011;17976;48.480;11.946;2023-02-10T14:56:49;40.67;;;21.73;;
31348;SDS011;17976;48.480;11.946;2023-02-10T14:59:22;42.33;;;21.83;;
31348;SDS011;17976;48.480;11.946;2023-02-10T15:01:50;39.45;;;21.48;;
31348;SDS011;17976;48.480;11.946;2023-02-10T15:04:16;42.13;;;21.55;;
31348;SDS011;17976;48.480;11.946;2023-02-10T15:06:44;41.22;;;21.48;;
31348;SDS011;17976;48.480;11.946;2023-02-10T15:09:17;43.85;;;22.85;;
31348;SDS011;17976;48.480;11.946;2023-02-10T15:14:29;42.28;;;21.90;;
31348;SDS011;17976;48.480;11.946;2023-02-10T15:16:57;42.28;;;21.90;;
31348;SDS011;17976;48.480;11.946;2023-02-10T15:19:23;49.85;;;22.48;;
31348;SDS011;17976;48.480;11.946;2023-02-10T15:21:49;45.13;;;21.15;;
31348;SDS011;17976;48.480;11.946;2023-02-10T15:24:21;51.60;;;22.13;;
31348;SDS011;17976;48.480;11.946;2023-02-10T15:26:48;40.70;;;20.85;;
31348;SDS011;17976;48.480;11.946;2023-02-10T15:29:15;40.72;;;20.48;;
31348;SDS011;17976;48.480;11.946;2023-02-10T15:31:41;43.67;;;23.00;;
31348;SDS011;17976;48.480;11.946;2023-02-10T15:37:34;43.03;;;21.65;;
31348;SDS011;17976;48.480;11.946;2023-02-10T15:39:41;44.53;;;22.30;;
31348;SDS011;17976;48.480;11.946;2023-02-10T15:44:41;44.35;;;22.15;;
31348;SDS011;17976;48.480;11.946;2023-02-10T15:49:36;38.10;;;20.73;;
31348;SDS011;17976;48.480;11.946;2023-02-10T15:52:02;40.55;;;20.98;;
31348;SDS011;17976;48.480;11.946;2023-02-10T15:54:28;43.65;;;21.65;;
31348;SDS011;17976;48.480;11.946;2023-02-10T15:56:55;40.25;;;21.13;;
31348;SDS011;17976;48.480;11.946;2023-02-10T15:59:21;44.53;;;20.90;;
31348;SDS011;17976;48.480;11.946;2023-02-10T16:01:56;43.20;;;21.27;;
31348;SDS011;17976;48.480;11.946;2023-02-10T16:04:22;44.63;;;22.33;;
31348;SDS011;17976;48.480;11.946;2023-02-10T16:06:48;43.22;;;21.50;;
31348;SDS011;17976;48.480;11.946;2023-02-10T16:09:14;46.25;;;22.98;;
31348;SDS011;17976;48.480;11.946;2023-02-10T16:11:41;43.22;;;22.23;;
31348;SDS011;17976;48.480;11.946;2023-02-10T16:14:07;48.08;;;22.73;;
31348;SDS011;17976;48.480;11.946;2023-02-10T16:16:34;50.83;;;22.55;;
31348;SDS011;17976;48.480;11.946;2023-02-10T16:19:02;54.42;;;25.08;;
31348;SDS011;17976;48.480;11.946;2023-02-10T16:21:28;51.97;;;24.20;;
31348;SDS011;17976;48.480;11.946;2023-02-10T16:23:54;59.83;;;23.58;;
31348;SDS011;17976;48.480;11.946;2023-02-10T16:26:21;56.42;;;23.05;;
31348;SDS011;17976;48.480;11.946;2023-02-10T16:28:48;48.30;;;23.05;;
31348;SDS011;17976;48.480;11.946;2023-02-10T16:31:14;51.45;;;21.92;;
31348;SDS011;17976;48.480;11.946;2023-02-10T16:33:43;47.42;;;21.92;;
31348;SDS011;17976;48.480;11.946;2023-02-10T16:36:10;48.90;;;21.17;;
31348;SDS011;17976;48.480;11.946;2023-02-10T16:38:35;44.55;;;21.58;;
31348;SDS011;17976;48.480;11.946;2023-02-10T16:41:04;45.55;;;21.20;;
31348;SDS011;17976;48.480;11.946;2023-02-10T16:43:30;47.53;;;21.92;;
31348;SDS011;17976;48.480;11.946;2023-02-10T16:45:56;49.08;;;22.95;;
31348;SDS011;17976;48.480;11.946;2023-02-10T16:48:22;47.28;;;22.73;;
31348;SDS011;17976;48.480;11.946;2023-02-10T16:50:47;50.10;;;22.98;;
31348;SDS011;17976;48.480;11.946;2023-02-10T16:53:13;46.25;;;22.10;;
31348;SDS011;17976;48.480;11.946;2023-02-10T16:55:40;51.05;;;23.15;;
31348;SDS011;17976;48.480;11.946;2023-02-10T16:58:06;45.03;;;21.42;;
31348;SDS011;17976;48.480;11.946;2023-02-10T17:00:32;47.55;;;21.38;;
31348;SDS011;17976;48.480;11.946;2023-02-10T17:02:58;48.92;;;21.77;;
31348;SDS011;17976;48.480;11.946;2023-02-10T17:05:25;49.00;;;22.80;;
31348;SDS011;17976;48.480;11.946;2023-02-10T17:07:51;45.25;;;21.60;;
31348;SDS011;17976;48.480;11.946;2023-02-10T17:10:18;48.67;;;21.85;;
31348;SDS011;17976;48.480;11.946;2023-02-10T17:12:45;52.60;;;23.55;;
31348;SDS011;17976;48.480;11.946;2023-02-10T17:15:11;48.28;;;22.35;;
31348;SDS011;17976;48.480;11.946;2023-02-10T17:17:37;48.97;;;22.23;;
31348;SDS011;17976;48.480;11.946;2023-02-10T17:20:04;50.25;;;23.67;;
31348;SDS011;17976;48.480;11.946;2023-02-10T17:22:31;58.53;;;24.30;;
31348;SDS011;17976;48.480;11.946;2023-02-10T17:24:57;55.83;;;24.17;;
31348;SDS011;17976;48.480;11.946;2023-02-10T17:27:23;54.15;;;22.50;;
31348;SDS011;17976;48.480;11.946;2023-02-10T17:29:49;57.58;;;24.05;;
31348;SDS011;17976;48.480;11.946;2023-02-10T17:32:16;52.13;;;22.85;;
31348;SDS011;17976;48.480;11.946;2023-02-10T17:34:42;51.83;;;21.85;;
31348;SDS011;17976;48.480;11.946;2023-02-10T17:37:08;56.00;;;23.13;;
31348;SDS011;17976;48.480;11.946;2023-02-10T17:39:37;49.55;;;22.58;;
31348;SDS011;17976;48.480;11.946;2023-02-10T17:42:07;56.35;;;23.77;;
31348;SDS011;17976;48.480;11.946;2023-02-10T17:44:33;51.15;;;24.40;;
31348;SDS011;17976;48.480;11.946;2023-02-10T17:47:00;56.05;;;25.15;;
31348;SDS011;17976;48.480;11.946;2023-02-10T17:49:27;57.25;;;24.45;;
31348;SDS011;17976;48.480;11.946;2023-02-10T17:51:53;58.05;;;26.13;;
31348;SDS011;17976;48.480;11.946;2023-02-10T17:54:19;61.42;;;26.80;;
31348;SDS011;17976;48.480;11.946;2023-02-10T17:56:45;59.80;;;25.30;;
31348;SDS011;17976;48.480;11.946;2023-02-10T17:59:12;72.88;;;27.83;;
31348;SDS011;17976;48.480;11.946;2023-02-10T18:01:38;63.95;;;26.77;;
31348;SDS011;17976;48.480;11.946;2023-02-10T18:04:04;61.33;;;28.30;;
31348;SDS011;17976;48.480;11.946;2023-02-10T18:06:30;65.75;;;26.77;;
31348;SDS011;17976;48.480;11.946;2023-02-10T18:08:56;59.33;;;26.58;;
31348;SDS011;17976;48.480;11.946;2023-02-10T18:11:23;66.05;;;26.85;;
31348;SDS011;17976;48.480;11.946;2023-02-10T18:13:49;60.00;;;26.40;;
31348;SDS011;17976;48.480;11.946;2023-02-10T18:16:15;54.58;;;25.95;;
31348;SDS011;17976;48.480;11.946;2023-02-10T18:18:41;55.08;;;24.65;;
31348;SDS011;17976;48.480;11.946;2023-02-10T18:21:12;60.85;;;25.20;;
31348;SDS011;17976;48.480;11.946;2023-02-10T18:23:38;60.72;;;24.80;;
31348;SDS011;17976;48.480;11.946;2023-02-10T18:26:04;62.38;;;26.05;;
31348;SDS011;17976;48.480;11.946;2023-02-10T18:28:30;57.40;;;25.67;;
31348;SDS011;17976;48.480;11.946;2023-02-10T18:31:00;54.72;;;25.63;;
31348;SDS011;17976;48.480;11.946;2023-02-10T18:33:26;53.38;;;25.35;;
31348;SDS011;17976;48.480;11.946;2023-02-10T18:35:52;55.22;;;25.30;;
31348;SDS011;17976;48.480;11.946;2023-02-10T18:38:18;55.67;;;25.17;;
31348;SDS011;17976;48.480;11.946;2023-02-10T18:40:44;60.47;;;25.73;;
31348;SDS011;17976;48.480;11.946;2023-02-10T18:43:13;71.63;;;29.90;;
31348;SDS011;17976;48.480;11.946;2023-02-10T18:45:40;59.63;;;26.48;;
31348;SDS011;17976;48.480;11.946;2023-02-10T18:48:12;75.32;;;30.35;;
31348;SDS011;17976;48.480;11.946;2023-02-10T18:50:38;74.93;;;29.70;;
31348;SDS011;17976;48.480;11.946;2023-02-10T18:53:04;67.18;;;30.55;;
31348;SDS011;17976;48.480;11.946;2023-02-10T18:55:30;69.50;;;29.52;;
31348;SDS011;17976;48.480;11.946;2023-02-10T18:57:56;68.80;;;30.00;;
31348;SDS011;17976;48.480;11.946;2023-02-10T19:00:25;68.65;;;30.65;;
31348;SDS011;17976;48.480;11.946;2023-02-10T19:02:51;62.38;;;30.45;;
31348;SDS011;17976;48.480;11.946;2023-02-10T19:05:17;72.13;;;30.10;;
31348;SDS011;17976;48.480;11.946;2023-02-10T19:07:43;71.20;;;29.83;;
31348;SDS011;17976;48.480;11.946;2023-02-10T19:10:09;68.05;;;30.67;;
31348;SDS011;17976;48.480;11.946;2023-02-10T19:12:34;72.35;;;30.90;;
31348;SDS011;17976;48.480;11.946;2023-02-10T19:15:00;80.10;;;30.55;;
31348;SDS011;17976;48.480;11.946;2023-02-10T19:17:26;68.60;;;30.85;;
31348;SDS011;17976;48.480;11.946;2023-02-10T19:19:52;68.60;;;31.02;;
31348;SDS011;17976;48.480;11.946;2023-02-10T19:22:18;76.28;;;31.35;;
31348;SDS011;17976;48.480;11.946;2023-02-10T19:24:44;81.22;;;32.22;;
31348;SDS011;17976;48.480;11.946;2023-02-10T19:27:10;89.10;;;34.75;;
31348;SDS011;17976;48.480;11.946;2023-02-10T19:29:36;75.80;;;33.17;;
31348;SDS011;17976;48.480;11.946;2023-02-10T19:32:02;82.43;;;35.45;;
31348;SDS011;17976;48.480;11.946;2023-02-10T19:34:28;80.07;;;34.10;;
31348;SDS011;17976;48.480;11.946;2023-02-10T19:36:55;76.20;;;34.15;;
31348;SDS011;17976;48.480;11.946;2023-02-10T19:39:21;76.78;;;34.15;;
31348;SDS011;17976;48.480;11.946;2023-02-10T19:41:47;76.43;;;32.97;;
31348;SDS011;17976;48.480;11.946;2023-02-10T19:44:16;76.65;;;31.50;;
31348;SDS011;17976;48.480;11.946;2023-02-10T19:46:43;77.05;;;30.83;;
31348;SDS011;17976;48.480;11.946;2023-02-10T19:49:09;62.47;;;29.15;;
31348;SDS011;17976;48.480;11.946;2023-02-10T19:51:36;66.45;;;29.25;;
31348;SDS011;17976;48.480;11.946;2023-02-10T19:54:02;65.10;;;26.55;;
31348;SDS011;17976;48.480;11.946;2023-02-10T19:56:28;64.47;;;27.55;;
31348;SDS011;17976;48.480;11.946;2023-02-10T19:58:54;70.03;;;28.70;;
31348;SDS011;17976;48.480;11.946;2023-02-10T20:01:20;68.15;;;28.90;;
31348;SDS011;17976;48.480;11.946;2023-02-10T20:03:47;69.22;;;28.90;;
31348;SDS011;17976;48.480;11.946;2023-02-10T20:06:15;65.10;;;28.38;;
31348;SDS011;17976;48.480;11.946;2023-02-10T20:08:41;78.95;;;29.58;;
31348;SDS011;17976;48.480;11.946;2023-02-10T20:11:09;67.65;;;29.20;;
31348;SDS011;17976;48.480;11.946;2023-02-10T20:13:36;67.57;;;29.52;;
31348;SDS011;17976;48.480;11.946;2023-02-10T20:16:01;82.72;;;34.47;;
31348;SDS011;17976;48.480;11.946;2023-02-10T20:18:27;76.20;;;32.33;;
31348;SDS011;17976;48.480;11.946;2023-02-10T20:20:54;71.40;;;29.55;;
31348;SDS011;17976;48.480;11.946;2023-02-10T20:23:25;70.60;;;29.75;;
31348;SDS011;17976;48.480;11.946;2023-02-10T20:25:51;72.45;;;30.85;;
31348;SDS011;17976;48.480;11.946;2023-02-10T20:28:17;67.88;;;29.35;;
31348;SDS011;17976;48.480;11.946;2023-02-10T20:30:43;68.00;;;29.80;;
31348;SDS011;17976;48.480;11.946;2023-02-10T20:33:09;66.45;;;30.35;;
31348;SDS011;17976;48.480;11.946;2023-02-10T20:35:36;73.15;;;30.90;;
31348;SDS011;17976;48.480;11.946;2023-02-10T20:38:03;64.88;;;28.40;;
31348;SDS011;17976;48.480;11.946;2023-02-10T20:40:29;68.85;;;28.20;;
31348;SDS011;17976;48.480;11.946;2023-02-10T20:42:55;70.50;;;31.33;;
31348;SDS011;17976;48.480;11.946;2023-02-10T20:45:21;74.25;;;30.38;;
31348;SDS011;17976;48.480;11.946;2023-02-10T20:47:47;71.88;;;31.20;;
31348;SDS011;17976;48.480;11.946;2023-02-10T20:50:13;78.30;;;32.10;;
31348;SDS011;17976;48.480;11.946;2023-02-10T20:52:40;74.78;;;31.75;;
31348;SDS011;17976;48.480;11.946;2023-02-10T20:55:09;77.65;;;31.83;;
31348;SDS011;17976;48.480;11.946;2023-02-10T20:57:35;78.55;;;31.10;;
31348;SDS011;17976;48.480;11.946;2023-02-10T21:00:02;70.18;;;30.88;;
